createdAt,value
2023-03-25T00:01:25.711Z,9.57
2023-03-25T00:03:54.514Z,9.60
2023-03-25T00:06:23.265Z,9.62
2023-03-25T00:08:51.985Z,9.64
2023-03-25T00:11:20.733Z,9.64
2023-03-25T00:13:49.455Z,9.60
2023-03-25T00:16:20.196Z,9.57
2023-03-25T00:18:49.995Z,9.53
2023-03-25T00:21:18.985Z,9.48
2023-03-25T00:23:48.000Z,9.43
2023-03-25T00:26:16.761Z,9.35
2023-03-25T00:28:45.805Z,9.24
2023-03-25T00:31:15.874Z,9.14
2023-03-25T00:33:46.032Z,9.04
2023-03-25T00:36:15.500Z,8.94
2023-03-25T00:38:45.661Z,8.87
2023-03-25T00:41:22.857Z,8.83
2023-03-25T00:43:54.973Z,8.79
2023-03-25T00:46:24.621Z,8.75
2023-03-25T00:48:55.308Z,8.69
2023-03-25T00:51:25.903Z,8.61
2023-03-25T00:54:00.206Z,8.47
2023-03-25T00:56:30.111Z,8.35
2023-03-25T00:58:59.463Z,8.37
2023-03-25T01:01:30.236Z,8.41
2023-03-25T01:04:01.645Z,8.50
2023-03-25T01:06:34.842Z,8.62
2023-03-25T01:09:05.782Z,8.75
2023-03-25T01:11:37.688Z,8.82
2023-03-25T01:14:08.769Z,8.85
2023-03-25T01:16:37.480Z,8.83
2023-03-25T01:19:07.598Z,8.74
2023-03-25T01:21:36.882Z,8.56
2023-03-25T01:24:06.048Z,8.38
2023-03-25T01:26:34.964Z,8.22
2023-03-25T01:29:03.657Z,8.12
2023-03-25T01:31:32.984Z,8.05
2023-03-25T01:34:01.914Z,7.95
2023-03-25T01:36:32.366Z,7.89
2023-03-25T01:39:02.549Z,7.89
2023-03-25T01:41:42.609Z,7.84
2023-03-25T01:44:50.936Z,7.83
2023-03-25T01:47:19.779Z,7.95
2023-03-25T01:49:50.192Z,8.07
2023-03-25T01:52:25.426Z,8.12
2023-03-25T01:54:56.911Z,7.96
2023-03-25T01:57:26.243Z,8.32
2023-03-25T01:59:56.655Z,8.41
2023-03-25T02:02:36.743Z,8.49
2023-03-25T02:05:11.165Z,8.57
2023-03-25T02:07:46.920Z,8.62
2023-03-25T02:10:16.716Z,8.69
2023-03-25T02:12:47.148Z,8.77
2023-03-25T02:15:19.055Z,8.82
2023-03-25T02:18:13.716Z,8.87
2023-03-25T02:21:12.767Z,8.92
2023-03-25T02:24:30.005Z,9.00
2023-03-25T02:27:28.262Z,9.03
2023-03-25T02:30:20.878Z,9.02
2023-03-25T02:33:33.500Z,9.02
2023-03-25T02:36:38.850Z,9.04
2023-03-25T02:39:15.743Z,9.06
2023-03-25T02:41:52.262Z,9.03
2023-03-25T02:44:30.765Z,9.01
2023-03-25T02:47:05.552Z,9.04
2023-03-25T02:49:38.088Z,9.09
2023-03-25T02:52:11.887Z,9.10
2023-03-25T02:54:45.108Z,9.09
2023-03-25T02:57:18.900Z,9.02
2023-03-25T02:59:48.904Z,8.97
2023-03-25T03:02:19.447Z,8.97
2023-03-25T03:04:50.488Z,8.90
2023-03-25T03:07:26.152Z,8.78
2023-03-25T03:10:06.045Z,8.65
2023-03-25T03:12:51.113Z,8.64
2023-03-25T03:15:31.329Z,8.57
2023-03-25T03:18:10.635Z,8.49
2023-03-25T03:20:44.615Z,8.46
2023-03-25T03:23:21.052Z,8.57
2023-03-25T03:25:56.308Z,8.74
2023-03-25T03:28:31.713Z,8.84
2023-03-25T03:31:06.939Z,8.94
2023-03-25T03:33:44.191Z,8.99
2023-03-25T03:36:17.313Z,9.03
2023-03-25T03:38:51.203Z,9.08
2023-03-25T03:41:27.139Z,9.11
2023-03-25T03:44:02.747Z,9.13
2023-03-25T03:46:35.976Z,9.16
2023-03-25T03:49:10.612Z,9.17
2023-03-25T03:51:44.076Z,9.18
2023-03-25T03:54:19.592Z,9.22
2023-03-25T03:56:55.384Z,9.23
2023-03-25T03:59:34.673Z,9.25
2023-03-25T04:02:07.834Z,9.28
2023-03-25T04:04:38.864Z,9.25
2023-03-25T04:07:14.961Z,9.20
2023-03-25T04:09:55.115Z,9.16
2023-03-25T04:12:28.196Z,9.17
2023-03-25T04:14:57.880Z,9.22
2023-03-25T04:17:30.147Z,9.25
2023-03-25T04:19:58.802Z,9.27
2023-03-25T04:22:27.773Z,9.28
2023-03-25T04:25:00.248Z,9.31
2023-03-25T04:27:32.820Z,9.33
2023-03-25T04:30:03.041Z,9.35
2023-03-25T04:32:31.777Z,9.35
2023-03-25T04:35:00.527Z,9.38
2023-03-25T04:37:29.897Z,9.39
2023-03-25T04:40:00.243Z,9.39
2023-03-25T04:42:32.999Z,9.38
2023-03-25T04:45:02.579Z,9.34
2023-03-25T04:47:31.373Z,9.32
2023-03-25T04:50:00.188Z,9.33
2023-03-25T04:52:28.914Z,9.28
2023-03-25T04:54:57.624Z,9.21
2023-03-25T04:57:26.355Z,9.15
2023-03-25T04:59:56.544Z,9.17
2023-03-25T05:02:25.318Z,9.20
2023-03-25T05:04:54.270Z,9.24
2023-03-25T05:07:22.937Z,9.32
2023-03-25T05:09:51.761Z,9.40
2023-03-25T05:12:20.619Z,9.48
2023-03-25T05:14:49.580Z,9.52
2023-03-25T05:17:19.733Z,9.55
2023-03-25T05:19:48.481Z,9.50
2023-03-25T05:22:17.176Z,9.36
2023-03-25T05:24:45.873Z,9.21
2023-03-25T05:27:14.619Z,9.07
2023-03-25T05:29:44.604Z,9.02
2023-03-25T05:32:13.699Z,8.96
2023-03-25T05:34:46.508Z,8.90
2023-03-25T05:37:15.765Z,8.81
2023-03-25T05:39:45.689Z,8.77
2023-03-25T05:42:14.815Z,8.73
2023-03-25T05:44:51.645Z,8.90
2023-03-25T05:47:25.762Z,9.30
2023-03-25T05:49:55.856Z,9.61
2023-03-25T05:52:25.664Z,9.73
2023-03-25T05:54:55.816Z,9.78
2023-03-25T05:57:24.571Z,9.83
2023-03-25T05:59:53.223Z,9.93
2023-03-25T06:02:22.248Z,10.02
2023-03-25T06:04:51.480Z,10.14
2023-03-25T06:07:24.252Z,10.30
2023-03-25T06:09:54.331Z,10.41
2023-03-25T06:12:27.638Z,10.48
2023-03-25T06:14:56.418Z,10.68
2023-03-25T06:17:25.253Z,10.88
2023-03-25T06:19:54.166Z,11.05
2023-03-25T06:22:24.337Z,10.95
2023-03-25T06:24:53.432Z,11.05
2023-03-25T06:27:24.822Z,11.26
2023-03-25T06:29:53.549Z,11.01
2023-03-25T06:32:22.379Z,10.98
2023-03-25T06:34:51.451Z,11.15
2023-03-25T06:37:21.924Z,11.52
2023-03-25T06:39:56.397Z,11.88
2023-03-25T06:42:28.431Z,11.90
2023-03-25T06:45:22.586Z,11.80
2023-03-25T06:48:03.157Z,11.61
2023-03-25T06:50:31.934Z,11.60
2023-03-25T06:53:00.988Z,11.56
2023-03-25T06:55:31.145Z,11.62
2023-03-25T06:57:59.606Z,11.66
2023-03-25T07:00:28.569Z,11.91
2023-03-25T07:02:58.397Z,12.13
2023-03-25T07:05:27.297Z,12.04
2023-03-25T07:07:56.128Z,11.93
2023-03-25T07:10:24.817Z,11.77
2023-03-25T07:12:54.898Z,11.57
2023-03-25T07:15:23.621Z,11.48
2023-03-25T07:17:53.176Z,11.55
2023-03-25T07:20:21.684Z,11.81
2023-03-25T07:22:50.393Z,12.33
2023-03-25T07:25:19.142Z,12.70
2023-03-25T07:27:47.833Z,13.00
2023-03-25T07:30:21.159Z,13.47
2023-03-25T07:32:50.054Z,13.79
2023-03-25T07:35:18.900Z,13.99
2023-03-25T07:37:47.812Z,13.90
2023-03-25T07:40:16.617Z,13.94
2023-03-25T07:42:46.463Z,13.60
2023-03-25T07:45:24.497Z,13.03
2023-03-25T07:47:55.487Z,12.89
2023-03-25T07:50:25.624Z,12.90
2023-03-25T07:52:56.111Z,12.68
2023-03-25T07:55:24.506Z,12.62
2023-03-25T07:57:53.223Z,12.72
2023-03-25T08:00:23.943Z,12.70
2023-03-25T08:02:52.840Z,12.64
2023-03-25T08:05:22.335Z,12.91
2023-03-25T08:07:51.381Z,13.32
2023-03-25T08:10:20.722Z,13.27
2023-03-25T08:12:52.718Z,13.48
2023-03-25T08:15:24.646Z,13.41
2023-03-25T08:17:54.795Z,13.62
2023-03-25T08:20:23.455Z,13.60
2023-03-25T08:22:52.399Z,13.47
2023-03-25T08:25:21.119Z,13.87
2023-03-25T08:27:49.889Z,14.25
2023-03-25T08:30:18.640Z,14.22
2023-03-25T08:32:54.624Z,14.25
2023-03-25T08:35:26.309Z,14.48
2023-03-25T08:37:55.028Z,14.49
2023-03-25T08:40:23.785Z,14.31
2023-03-25T08:42:52.243Z,14.32
2023-03-25T08:45:21.149Z,14.55
2023-03-25T08:47:49.954Z,14.48
2023-03-25T08:50:18.616Z,14.77
2023-03-25T08:52:48.551Z,14.84
2023-03-25T08:55:17.785Z,14.62
2023-03-25T08:57:46.681Z,14.94
2023-03-25T09:00:16.914Z,15.23
2023-03-25T09:02:46.042Z,15.45
2023-03-25T09:05:16.112Z,14.69
2023-03-25T09:07:45.044Z,14.34
2023-03-25T09:10:15.044Z,14.17
2023-03-25T09:12:45.721Z,14.92
2023-03-25T09:15:14.198Z,15.30
2023-03-25T09:17:43.087Z,15.07
2023-03-25T09:20:12.664Z,14.58
2023-03-25T09:22:42.134Z,14.08
2023-03-25T09:25:12.363Z,13.50
2023-03-25T09:27:42.163Z,13.11
2023-03-25T09:30:12.526Z,13.11
2023-03-25T09:32:41.217Z,13.06
2023-03-25T09:35:10.166Z,12.88
2023-03-25T09:37:38.786Z,12.80
2023-03-25T09:40:09.382Z,13.05
2023-03-25T09:43:08.897Z,12.83
2023-03-25T09:45:42.256Z,12.96
2023-03-25T09:48:28.155Z,13.25
2023-03-25T09:51:01.604Z,13.44
2023-03-25T09:53:39.871Z,13.20
2023-03-25T09:56:19.866Z,12.94
2023-03-25T09:58:53.419Z,12.41
2023-03-25T10:01:39.191Z,12.77
2023-03-25T10:05:03.670Z,12.71
2023-03-25T10:07:53.117Z,12.53
2023-03-25T10:10:30.401Z,12.39
2023-03-25T10:13:14.719Z,12.30
2023-03-25T10:15:55.476Z,12.24
2023-03-25T10:18:54.148Z,12.24
2023-03-25T10:21:31.686Z,12.58
2023-03-25T10:24:13.958Z,12.70
2023-03-25T10:26:48.954Z,12.92
2023-03-25T10:29:23.324Z,12.99
2023-03-25T10:31:57.903Z,13.39
2023-03-25T10:34:38.713Z,13.47
2023-03-25T10:37:14.254Z,13.62
2023-03-25T10:39:45.744Z,14.30
2023-03-25T10:42:26.292Z,14.90
2023-03-25T10:44:55.820Z,14.84
2023-03-25T10:47:33.281Z,14.77
2023-03-25T10:50:02.206Z,14.04
2023-03-25T10:52:31.250Z,14.42
2023-03-25T10:55:00.557Z,14.59
2023-03-25T10:57:32.244Z,14.93
2023-03-25T11:00:12.910Z,14.51
2023-03-25T11:02:42.900Z,13.81
2023-03-25T11:05:12.962Z,13.89
2023-03-25T11:07:45.893Z,13.63
2023-03-25T11:10:22.252Z,13.53
2023-03-25T11:12:53.485Z,13.09
2023-03-25T11:15:25.713Z,12.79
2023-03-25T11:18:08.262Z,12.84
2023-03-25T11:20:40.542Z,12.37
2023-03-25T11:23:18.956Z,12.40
2023-03-25T11:25:48.271Z,12.58
2023-03-25T11:28:22.992Z,12.22
2023-03-25T11:31:13.754Z,12.39
2023-03-25T11:33:46.795Z,12.35
2023-03-25T11:36:28.735Z,12.31
2023-03-25T11:39:04.464Z,12.55
2023-03-25T11:41:37.734Z,12.78
2023-03-25T11:44:08.224Z,13.04
2023-03-25T11:46:44.669Z,13.28
2023-03-25T11:49:21.910Z,13.49
2023-03-25T11:51:52.886Z,13.16
2023-03-25T11:54:21.780Z,12.98
2023-03-25T11:56:51.459Z,13.13
2023-03-25T11:59:25.909Z,13.25
2023-03-25T12:02:04.398Z,13.24
2023-03-25T12:04:34.438Z,13.48
2023-03-25T12:07:10.872Z,12.91
2023-03-25T12:09:54.109Z,12.43
2023-03-25T12:12:39.690Z,12.13
2023-03-25T12:15:24.827Z,11.77
2023-03-25T12:18:09.264Z,11.45
2023-03-25T12:20:57.356Z,11.27
2023-03-25T12:23:44.016Z,11.38
2023-03-25T12:26:18.219Z,11.20
2023-03-25T12:29:11.877Z,11.44
2023-03-25T12:31:58.174Z,11.58
2023-03-25T12:34:43.213Z,11.97
2023-03-25T12:37:30.568Z,12.83
2023-03-25T12:40:33.644Z,13.69
2023-03-25T12:43:11.512Z,13.72
2023-03-25T12:46:03.960Z,12.76
2023-03-25T12:48:58.791Z,12.46
2023-03-25T12:51:46.175Z,11.95
2023-03-25T12:54:40.523Z,11.86
2023-03-25T12:57:29.015Z,11.81
2023-03-25T13:00:30.193Z,11.77
2023-03-25T13:03:28.348Z,11.97
2023-03-25T13:06:05.321Z,12.18
2023-03-25T13:08:39.952Z,12.33
2023-03-25T13:11:19.607Z,12.48
2023-03-25T13:13:52.484Z,12.58
2023-03-25T13:16:25.971Z,12.68
2023-03-25T13:19:04.748Z,12.78
2023-03-25T13:21:40.377Z,12.89
2023-03-25T13:24:17.036Z,12.67
2023-03-25T13:26:51.250Z,12.62
2023-03-25T13:29:31.770Z,12.60
2023-03-25T13:32:07.842Z,12.75
2023-03-25T13:34:43.932Z,13.10
2023-03-25T13:37:22.048Z,13.21
2023-03-25T13:40:12.673Z,13.34
2023-03-25T13:42:50.083Z,13.18
2023-03-25T13:45:21.537Z,13.58
2023-03-25T13:48:02.075Z,13.86
2023-03-25T13:50:33.140Z,13.98
2023-03-25T13:53:11.292Z,14.10
2023-03-25T13:55:45.678Z,14.18
2023-03-25T13:59:00.066Z,14.00
2023-03-25T14:01:49.463Z,14.26
2023-03-25T14:05:01.790Z,14.68
2023-03-25T14:07:57.709Z,14.88
2023-03-25T14:10:50.172Z,15.04
2023-03-25T14:13:27.568Z,15.08
2023-03-25T14:16:06.697Z,15.17
2023-03-25T14:18:44.296Z,15.09
2023-03-25T14:21:32.862Z,14.85
2023-03-25T14:24:12.625Z,14.80
2023-03-25T14:26:49.439Z,14.85
2023-03-25T14:29:36.205Z,14.78
2023-03-25T14:32:32.356Z,14.38
2023-03-25T14:35:48.258Z,14.78
2023-03-25T14:38:50.782Z,14.91
2023-03-25T14:41:58.277Z,14.88
2023-03-25T14:44:33.006Z,14.84
2023-03-25T14:47:27.385Z,14.56
2023-03-25T14:50:05.088Z,15.10
2023-03-25T14:52:39.997Z,14.79
2023-03-25T14:55:18.714Z,14.33
2023-03-25T14:57:50.767Z,14.16
2023-03-25T15:00:29.426Z,13.97
2023-03-25T15:03:06.944Z,13.52
2023-03-25T15:05:37.665Z,13.30
2023-03-25T15:08:17.689Z,13.47
2023-03-25T15:10:53.070Z,13.50
2023-03-25T15:13:28.420Z,13.59
2023-03-25T15:16:03.021Z,13.50
2023-03-25T15:19:10.498Z,13.34
2023-03-25T15:22:19.034Z,13.21
2023-03-25T15:24:59.801Z,12.84
2023-03-25T15:28:00.165Z,12.40
2023-03-25T15:31:04.410Z,12.15
2023-03-25T15:33:56.677Z,11.85
2023-03-25T15:37:05.620Z,11.59
2023-03-25T15:39:55.900Z,11.03
2023-03-25T15:43:00.422Z,11.04
2023-03-25T15:46:24.292Z,10.70
2023-03-25T15:49:19.050Z,10.29
2023-03-25T15:52:11.038Z,10.46
2023-03-25T15:54:45.586Z,10.46
2023-03-25T15:57:26.347Z,10.49
2023-03-25T16:00:11.914Z,10.60
2023-03-25T16:02:48.476Z,10.46
2023-03-25T16:05:19.705Z,10.71
2023-03-25T16:07:50.942Z,10.72
2023-03-25T16:10:28.259Z,11.04
2023-03-25T16:12:57.287Z,11.05
2023-03-25T16:15:30.786Z,11.08
2023-03-25T16:18:03.555Z,11.00
2023-03-25T16:20:36.653Z,10.73
2023-03-25T16:23:14.827Z,10.72
2023-03-25T16:25:45.591Z,10.51
2023-03-25T16:28:19.705Z,10.55
2023-03-25T16:30:53.382Z,10.58
2023-03-25T16:33:28.951Z,10.59
2023-03-25T16:36:01.388Z,10.53
2023-03-25T16:38:33.576Z,10.23
2023-03-25T16:41:05.057Z,9.91
2023-03-25T16:43:34.691Z,9.83
2023-03-25T16:46:06.247Z,9.65
2023-03-25T16:48:38.016Z,9.16
2023-03-25T16:51:13.873Z,8.84
2023-03-25T16:53:46.018Z,9.28
2023-03-25T16:56:30.234Z,8.94
2023-03-25T16:59:04.000Z,9.15
2023-03-25T17:01:38.456Z,9.08
2023-03-25T17:04:18.777Z,9.03
2023-03-25T17:06:53.269Z,8.92
2023-03-25T17:09:28.374Z,8.92
2023-03-25T17:11:59.110Z,8.83
2023-03-25T17:14:33.699Z,8.58
2023-03-25T17:17:30.012Z,8.59
2023-03-25T17:20:08.309Z,8.59
2023-03-25T17:22:39.774Z,8.43
2023-03-25T17:25:27.422Z,8.48
2023-03-25T17:27:59.582Z,8.38
2023-03-25T17:30:42.828Z,8.37
2023-03-25T17:33:19.488Z,8.26
2023-03-25T17:35:55.908Z,7.95
2023-03-25T17:38:30.306Z,8.24
2023-03-25T17:41:03.831Z,8.28
2023-03-25T17:43:36.233Z,8.07
2023-03-25T17:46:07.442Z,8.27
2023-03-25T17:48:36.875Z,8.24
2023-03-25T17:51:06.537Z,8.16
2023-03-25T17:53:35.395Z,8.07
2023-03-25T17:56:06.804Z,7.97
2023-03-25T17:58:35.607Z,7.90
2023-03-25T18:01:04.342Z,7.91
2023-03-25T18:03:36.206Z,7.76
2023-03-25T18:06:05.560Z,8.03
2023-03-25T18:08:34.934Z,7.97
2023-03-25T18:11:05.379Z,7.90
2023-03-25T18:13:34.191Z,7.92
2023-03-25T18:16:03.158Z,7.95
2023-03-25T18:18:32.011Z,7.96
2023-03-25T18:21:03.966Z,7.90
2023-03-25T18:23:32.808Z,7.95
2023-03-25T18:26:01.770Z,8.07
2023-03-25T18:28:34.471Z,8.03
2023-03-25T18:31:03.520Z,8.24
2023-03-25T18:33:34.691Z,8.28
2023-03-25T18:36:03.210Z,8.30
2023-03-25T18:38:31.980Z,8.43
2023-03-25T18:41:00.800Z,8.67
2023-03-25T18:43:30.853Z,8.80
2023-03-25T18:46:04.818Z,8.96
2023-03-25T18:48:33.594Z,9.22
2023-03-25T18:51:02.583Z,9.21
2023-03-25T18:53:31.545Z,9.16
2023-03-25T18:56:04.252Z,9.02
2023-03-25T18:58:36.282Z,9.11
2023-03-25T19:01:07.491Z,9.22
2023-03-25T19:03:39.800Z,9.40
2023-03-25T19:06:11.575Z,8.82
2023-03-25T19:08:41.171Z,9.47
2023-03-25T19:11:20.077Z,9.60
2023-03-25T19:13:52.870Z,9.53
2023-03-25T19:16:22.620Z,9.35
2023-03-25T19:18:51.391Z,9.59
2023-03-25T19:21:21.273Z,9.78
2023-03-25T19:23:52.080Z,9.86
2023-03-25T19:26:27.241Z,9.98
2023-03-25T19:28:58.456Z,10.51
2023-03-25T19:31:33.425Z,10.66
2023-03-25T19:34:02.523Z,10.54
2023-03-25T19:36:34.941Z,10.62
2023-03-25T19:39:05.801Z,10.97
2023-03-25T19:41:35.077Z,11.32
2023-03-25T19:44:05.433Z,11.15
2023-03-25T19:46:46.362Z,11.50
2023-03-25T19:49:20.653Z,11.33
2023-03-25T19:51:57.901Z,11.32
2023-03-25T19:54:27.219Z,11.33
2023-03-25T19:56:56.428Z,11.50
2023-03-25T19:59:26.472Z,11.21
2023-03-25T20:01:55.352Z,11.05
2023-03-25T20:04:24.130Z,10.89
2023-03-25T20:06:53.100Z,10.34
2023-03-25T20:09:21.880Z,9.66
2023-03-25T20:11:50.470Z,9.15
2023-03-25T20:14:19.711Z,8.99
2023-03-25T20:16:49.690Z,8.84
2023-03-25T20:19:18.594Z,8.81
2023-03-25T20:21:48.126Z,8.83
2023-03-25T20:24:17.014Z,9.51
2023-03-25T20:26:46.220Z,9.48
2023-03-25T20:29:16.982Z,9.42
2023-03-25T20:31:46.101Z,9.38
2023-03-25T20:34:16.317Z,9.37
2023-03-25T20:36:46.600Z,9.31
2023-03-25T20:39:18.570Z,9.22
2023-03-25T20:41:47.376Z,9.13
2023-03-25T20:44:17.476Z,9.09
2023-03-25T20:46:46.719Z,9.12
2023-03-25T20:49:19.142Z,9.15
2023-03-25T20:51:48.573Z,9.16
2023-03-25T20:54:17.758Z,9.25
2023-03-25T20:56:47.000Z,9.25
2023-03-25T20:59:16.996Z,9.16
2023-03-25T21:01:50.809Z,9.13
2023-03-25T21:04:26.566Z,9.08
2023-03-25T21:06:55.822Z,8.97
2023-03-25T21:09:25.716Z,8.95
2023-03-25T21:11:54.463Z,8.93
2023-03-25T21:14:23.532Z,8.84
2023-03-25T21:16:54.337Z,8.75
2023-03-25T21:19:23.132Z,8.69
2023-03-25T21:21:54.317Z,8.57
2023-03-25T21:24:25.117Z,8.49
2023-03-25T21:26:53.829Z,8.44
2023-03-25T21:29:22.746Z,8.44
2023-03-25T21:31:51.652Z,8.39
2023-03-25T21:34:22.027Z,8.47
2023-03-25T21:36:52.159Z,8.49
2023-03-25T21:39:20.879Z,8.52
2023-03-25T21:41:49.641Z,8.63
2023-03-25T21:44:18.348Z,8.65
2023-03-25T21:46:47.076Z,8.66
2023-03-25T21:49:16.176Z,8.61
2023-03-25T21:51:56.661Z,8.61
2023-03-25T21:54:26.526Z,8.54
2023-03-25T21:56:55.963Z,8.56
2023-03-25T21:59:27.277Z,8.62
2023-03-25T22:01:56.546Z,8.73
2023-03-25T22:04:25.302Z,8.81
2023-03-25T22:06:56.750Z,8.88
2023-03-25T22:09:26.568Z,8.96
2023-03-25T22:11:55.827Z,9.01
2023-03-25T22:14:24.700Z,9.01
2023-03-25T22:16:53.522Z,8.98
2023-03-25T22:19:24.543Z,8.96
2023-03-25T22:21:53.441Z,8.95
2023-03-25T22:24:22.182Z,8.86
2023-03-25T22:26:52.027Z,8.81
2023-03-25T22:29:20.874Z,8.83
2023-03-25T22:31:50.750Z,8.81
2023-03-25T22:34:19.543Z,8.73
2023-03-25T22:36:51.009Z,8.73
2023-03-25T22:39:23.086Z,8.69
2023-03-25T22:41:53.377Z,8.93
2023-03-25T22:44:22.357Z,9.01
2023-03-25T22:46:51.956Z,9.08
2023-03-25T22:49:21.756Z,9.05
2023-03-25T22:51:51.131Z,9.06
2023-03-25T22:54:20.137Z,9.10
2023-03-25T22:56:49.061Z,9.08
2023-03-25T22:59:19.198Z,9.04
2023-03-25T23:01:48.008Z,9.01
2023-03-25T23:04:16.759Z,9.00
2023-03-25T23:06:53.946Z,8.99
2023-03-25T23:09:45.158Z,8.96
2023-03-25T23:12:17.115Z,8.76
2023-03-25T23:14:52.496Z,8.93
2023-03-25T23:17:21.609Z,8.88
2023-03-25T23:19:50.716Z,8.88
2023-03-25T23:22:19.845Z,8.85
2023-03-25T23:24:48.558Z,8.82
2023-03-25T23:27:17.260Z,8.84
2023-03-25T23:29:47.081Z,8.87
2023-03-25T23:32:16.553Z,8.91
2023-03-25T23:34:45.294Z,8.93
2023-03-25T23:37:14.082Z,8.93
2023-03-25T23:39:46.290Z,8.96
2023-03-25T23:42:15.094Z,8.95
2023-03-25T23:44:44.437Z,8.96
2023-03-25T23:47:14.593Z,8.99
2023-03-25T23:49:44.292Z,8.97
2023-03-25T23:52:13.695Z,8.93
2023-03-25T23:54:43.027Z,8.91
2023-03-25T23:57:11.766Z,8.90
2023-03-25T23:59:40.612Z,8.91
